Time;durP1;ratioP1;P1;durP2;ratioP2;P2;SDS_P1;SDS_P2;PMS_P1;PMS_P2;Temp;Humidity;BMP_temperature;BMP_pressure;BME280_temperature;BME280_humidity;BME280_pressure;Samples;Min_cycle;Max_cycle;Signal;HPM_P1;HPM_P2
2024/04/09 00:00:49;;;;;;;24.15;4.55;;;;;;;18.51;73.14;99183.34;7384493;19;20035;-72
2024/04/09 00:03:16;;;;;;;17.33;4.30;;;;;;;18.50;72.76;99221.88;7382746;19;20040;-72
2024/04/09 00:05:43;;;;;;;17.92;4.55;;;;;;;18.46;73.26;99206.22;7381938;19;20010;-71
2024/04/09 00:08:13;;;;;;;16.13;3.90;;;;;;;18.54;73.84;99204.50;7380795;19;20018;-72
2024/04/09 00:10:39;;;;;;;20.47;4.50;;;;;;;18.48;74.56;99197.03;7379302;19;20452;-72
2024/04/09 00:13:06;;;;;;;22.80;4.28;;;;;;;18.42;75.12;99178.03;7382609;19;20023;-72
2024/04/09 00:15:35;;;;;;;25.05;4.53;;;;;;;18.07;76.59;99146.69;7380222;19;20047;-74
2024/04/09 00:18:24;;;;;;;15.20;4.50;;;;;;;18.42;77.32;99188.75;7382289;19;20018;-72
2024/04/09 00:20:53;;;;;;;16.15;4.32;;;;;;;18.26;77.43;99167.16;7381451;19;20035;-72
2024/04/09 00:23:19;;;;;;;17.52;4.18;;;;;;;18.28;78.00;99171.34;7385494;19;20010;-71
2024/04/09 00:25:45;;;;;;;18.70;4.32;;;;;;;18.37;79.23;99202.63;7383744;19;20468;-73
2024/04/09 00:28:11;;;;;;;18.08;4.13;;;;;;;17.91;79.11;99130.41;7381455;19;20007;-72
2024/04/09 00:30:39;;;;;;;18.25;3.85;;;;;;;18.28;79.31;99189.28;7380165;19;20015;-73
2024/04/09 00:33:07;;;;;;;17.95;4.50;;;;;;;18.12;80.29;99165.81;7381266;19;20007;-73
2024/04/09 00:35:32;;;;;;;15.48;4.57;;;;;;;18.23;80.72;99190.59;7383491;19;20002;-73
2024/04/09 00:37:59;;;;;;;17.92;4.00;;;;;;;18.07;80.68;99165.44;7380924;19;20599;-71
2024/04/09 00:40:26;;;;;;;19.65;4.53;;;;;;;18.24;81.07;99207.50;7378741;19;20015;-71
2024/04/09 00:42:57;;;;;;;21.95;4.22;;;;;;;18.10;83.52;99192.75;7381214;19;20014;-72
2024/04/09 00:45:23;;;;;;;15.93;4.60;;;;;;;17.98;85.21;99185.06;7383105;19;20038;-72
2024/04/09 00:47:51;;;;;;;22.00;4.30;;;;;;;17.75;85.42;99161.34;7379524;19;20006;-71
2024/04/09 00:50:20;;;;;;;23.98;4.35;;;;;;;17.94;87.20;99199.75;7379539;19;20050;-72
2024/04/09 00:52:48;;;;;;;15.93;4.38;;;;;;;17.84;89.10;99211.34;7380525;19;20862;-71
2024/04/09 00:55:15;;;;;;;16.42;5.18;;;;;;;17.71;89.17;99189.41;7382499;19;20002;-72
2024/04/09 00:57:47;;;;;;;16.38;3.97;;;;;;;17.57;89.88;99181.81;7382779;19;20014;-72
2024/04/09 01:00:14;;;;;;;16.25;4.20;;;;;;;17.59;90.55;99187.88;7380131;19;20018;-71
2024/04/09 01:02:41;;;;;;;18.38;4.22;;;;;;;17.48;92.08;99170.13;7377388;19;20042;-72
2024/04/09 01:05:07;;;;;;;22.38;5.05;;;;;;;17.44;92.93;99163.41;7376598;19;20010;-71
2024/04/09 01:07:34;;;;;;;15.65;3.92;;;;;;;17.54;94.27;99200.84;7382382;19;20010;-71
2024/04/09 01:10:00;;;;;;;20.25;4.68;;;;;;;17.56;94.53;99201.53;7378999;19;20122;-70
2024/04/09 01:12:26;;;;;;;14.60;4.35;;;;;;;17.39;95.52;99191.59;7373387;19;20006;-72
2024/04/09 01:14:52;;;;;;;15.85;4.53;;;;;;;17.45;96.79;99201.72;7379789;19;20025;-71
2024/04/09 01:17:19;;;;;;;15.40;3.80;;;;;;;17.40;97.47;99195.94;7382778;19;20716;-71
2024/04/09 01:19:45;;;;;;;10.77;3.80;;;;;;;17.26;97.90;99175.00;7384689;19;20478;-72
2024/04/09 01:22:11;;;;;;;13.75;3.95;;;;;;;17.46;98.64;99209.59;7382445;19;20487;-72
2024/04/09 01:24:37;;;;;;;18.45;4.65;;;;;;;17.25;99.56;99166.13;7385496;19;20014;-73
2024/04/09 01:27:05;;;;;;;14.20;4.15;;;;;;;17.36;100.00;99173.97;7385414;19;20050;-73
2024/04/09 01:29:32;;;;;;;19.55;4.95;;;;;;;17.50;98.86;99197.59;7385912;19;20388;-72
2024/04/09 01:31:58;;;;;;;17.85;5.22;;;;;;;17.50;97.86;99191.41;7381828;19;20038;-73
2024/04/09 01:34:23;;;;;;;16.67;4.53;;;;;;;17.45;97.46;99172.28;7385980;19;20032;-71
2024/04/09 01:36:49;;;;;;;19.33;4.40;;;;;;;17.38;97.56;99160.47;7388040;19;20376;-71
2024/04/09 01:39:15;;;;;;;15.60;4.70;;;;;;;17.53;97.53;99201.81;7387296;19;20010;-72
2024/04/09 01:41:41;;;;;;;20.88;4.38;;;;;;;17.33;96.61;99165.41;7376648;19;20031;-71
2024/04/09 01:44:07;;;;;;;14.27;4.93;;;;;;;17.43;97.00;99190.31;7380736;19;20117;-72
2024/04/09 01:46:34;;;;;;;19.58;5.03;;;;;;;17.49;98.13;99197.75;7384090;19;20385;-72
2024/04/09 01:49:00;;;;;;;13.82;4.22;;;;;;;17.29;99.49;99177.41;7383789;19;20478;-72
2024/04/09 01:51:25;;;;;;;16.20;4.50;;;;;;;17.31;100.00;99191.47;7380432;19;20086;-71
2024/04/09 01:53:52;;;;;;;14.40;4.20;;;;;;;17.29;100.00;99193.44;7383511;19;20078;-72
2024/04/09 01:56:18;;;;;;;16.33;4.75;;;;;;;17.10;100.00;99170.25;7384975;19;20014;-73
2024/04/09 01:58:46;;;;;;;18.30;5.00;;;;;;;17.29;100.00;99206.81;7382829;19;20030;-73
2024/04/09 02:01:11;;;;;;;18.33;4.57;;;;;;;17.22;100.00;99203.88;7380377;19;20022;-73
2024/04/09 02:03:38;;;;;;;19.08;4.50;;;;;;;17.22;100.00;99229.78;7357655;19;20034;-73
2024/04/09 02:06:05;;;;;;;15.68;4.88;;;;;;;17.09;100.00;99198.81;7380571;19;20057;-72
2024/04/09 02:08:37;;;;;;;18.63;4.28;;;;;;;17.04;100.00;99184.16;7379714;19;20011;-71
2024/04/09 02:11:05;;;;;;;25.75;5.05;;;;;;;17.16;100.00;99221.31;7376559;19;20042;-72
2024/04/09 02:13:31;;;;;;;22.92;4.70;;;;;;;17.05;100.00;99202.75;7379916;19;20017;-70
2024/04/09 02:16:01;;;;;;;26.30;5.03;;;;;;;16.91;100.00;99176.44;7376888;19;20762;-71
2024/04/09 02:18:26;;;;;;;16.15;4.30;;;;;;;17.08;100.00;99213.19;7379771;19;20014;-71
2024/04/09 02:20:53;;;;;;;18.77;5.05;;;;;;;16.91;100.00;99189.81;7376891;19;20014;-72
2024/04/09 02:23:18;;;;;;;15.45;4.47;;;;;;;16.88;100.00;99213.31;7376083;19;20014;-72
2024/04/09 02:25:45;;;;;;;18.67;4.30;;;;;;;16.89;100.00;99212.31;7379473;19;20023;-73
2024/04/09 02:28:11;;;;;;;18.50;4.45;;;;;;;16.84;100.00;99216.25;7379010;19;20014;-72
2024/04/09 02:30:37;;;;;;;22.52;4.18;;;;;;;16.58;100.00;99177.66;7379519;19;20372;-72
2024/04/09 02:33:04;;;;;;;17.58;4.63;;;;;;;16.68;100.00;99210.66;7376322;19;20094;-71
2024/04/09 02:35:32;;;;;;;20.23;4.30;;;;;;;16.74;100.00;99219.91;7378705;19;20017;-73
2024/04/09 02:37:57;;;;;;;20.42;4.70;;;;;;;16.65;100.00;99216.28;7381434;19;20037;-71
2024/04/09 02:40:25;;;;;;;21.52;4.28;;;;;;;16.44;100.00;99202.13;7377811;19;20486;-72
2024/04/09 02:42:51;;;;;;;19.63;4.88;;;;;;;16.07;100.00;99161.84;7373506;19;20372;-73
2024/04/09 02:45:18;;;;;;;15.05;4.43;;;;;;;16.50;100.00;99244.34;7379546;19;20006;-71
2024/04/09 02:47:43;;;;;;;11.50;3.92;;;;;;;16.40;100.00;99232.78;7379249;19;20014;-72
2024/04/09 02:50:09;;;;;;;18.25;4.60;;;;;;;16.19;100.00;99206.16;7379191;19;20015;-72
2024/04/09 02:52:34;;;;;;;16.10;4.40;;;;;;;16.10;100.00;99188.28;7370643;19;20078;-73
2024/04/09 02:55:00;;;;;;;21.15;4.65;;;;;;;16.48;100.00;99257.84;7379622;19;20372;-73
2024/04/09 02:57:26;;;;;;;16.70;4.45;;;;;;;16.49;100.00;99256.00;7377848;19;20007;-72
2024/04/09 02:59:52;;;;;;;17.33;4.10;;;;;;;16.52;100.00;99250.41;7378698;19;20047;-71
2024/04/09 03:02:19;;;;;;;15.13;4.03;;;;;;;16.52;100.00;99247.72;7374873;19;20034;-71
2024/04/09 03:04:45;;;;;;;18.88;4.75;;;;;;;16.29;100.00;99215.03;7380300;19;20581;-72
2024/04/09 03:07:11;;;;;;;13.75;3.95;;;;;;;16.53;100.00;99254.75;7379864;19;20003;-73
2024/04/09 03:09:40;;;;;;;17.85;5.30;;;;;;;16.38;100.00;99230.22;7356075;19;20665;-72
2024/04/09 03:12:07;;;;;;;14.90;4.63;;;;;;;16.45;100.00;99235.88;7372429;19;20006;-73
2024/04/09 03:14:32;;;;;;;16.48;3.97;;;;;;;16.22;100.00;99199.69;7378501;19;20006;-71
2024/04/09 03:16:58;;;;;;;19.67;4.57;;;;;;;16.52;100.00;99242.38;7379344;19;20042;-72
2024/04/09 03:19:23;;;;;;;11.32;3.83;;;;;;;16.42;100.00;99220.97;7379748;19;20010;-72
2024/04/09 03:21:49;;;;;;;18.13;4.88;;;;;;;16.54;100.00;99235.03;7374076;19;20019;-71
2024/04/09 03:24:14;;;;;;;16.55;4.78;;;;;;;16.58;100.00;99232.94;7376571;19;20015;-72
2024/04/09 03:26:40;;;;;;;25.45;5.10;;;;;;;16.64;100.00;99245.81;7376455;19;20645;-72
2024/04/09 03:29:06;;;;;;;14.27;4.25;;;;;;;16.63;100.00;99246.78;7387454;19;20021;-72
2024/04/09 03:31:35;;;;;;;21.25;4.43;;;;;;;16.69;100.00;99256.91;7381886;19;20034;-74
2024/04/09 03:34:01;;;;;;;18.88;4.57;;;;;;;16.65;100.00;99239.47;7383360;19;20332;-73
2024/04/09 03:36:26;;;;;;;15.07;4.30;;;;;;;16.65;100.00;99242.16;7384133;19;20014;-73
2024/04/09 03:38:52;;;;;;;24.38;5.05;;;;;;;16.55;100.00;99235.91;7384495;19;20030;-72
2024/04/09 03:41:18;;;;;;;17.55;4.68;;;;;;;16.71;100.00;99285.19;7381233;19;20010;-71
2024/04/09 03:43:44;;;;;;;21.42;4.68;;;;;;;16.52;100.00;99242.38;7381453;19;20010;-72
2024/04/09 03:46:12;;;;;;;15.30;4.95;;;;;;;16.68;100.00;99279.31;7382827;19;20010;-72
2024/04/09 03:48:43;;;;;;;20.23;4.95;;;;;;;16.58;100.00;99262.34;7384443;19;20002;-72
2024/04/09 03:51:09;;;;;;;12.52;4.43;;;;;;;16.24;100.00;99216.41;7380774;19;20443;-73
2024/04/09 03:53:37;;;;;;;16.90;4.40;;;;;;;16.36;100.00;99237.56;7375800;19;20007;-73
2024/04/09 03:56:04;;;;;;;13.25;4.20;;;;;;;16.74;100.00;99294.78;7383681;19;20007;-74
2024/04/09 03:58:41;;;;;;;14.10;4.70;;;;;;;16.58;100.00;99268.53;7388691;19;20033;-72
2024/04/09 04:01:16;;;;;;;15.27;4.38;;;;;;;16.65;100.00;99276.91;7381270;19;20521;-72
2024/04/09 04:03:46;;;;;;;20.55;4.50;;;;;;;16.80;100.00;99289.72;7380853;19;20543;-73
2024/04/09 04:06:12;;;;;;;21.48;5.32;;;;;;;16.90;100.00;99300.44;7382366;19;20639;-72
2024/04/09 04:08:39;;;;;;;18.80;4.88;;;;;;;16.83;100.00;99283.28;7384784;19;20022;-73
2024/04/09 04:11:06;;;;;;;19.00;5.03;;;;;;;16.97;100.00;99301.59;7381073;19;20006;-72
2024/04/09 04:13:33;;;;;;;16.17;5.03;;;;;;;16.96;100.00;99293.69;7383125;19;20006;-72
2024/04/09 04:16:10;;;;;;;14.95;4.60;;;;;;;16.85;100.00;99270.59;7382500;19;20026;-72
2024/04/09 04:18:50;;;;;;;20.00;5.05;;;;;;;16.96;100.00;99293.69;7383192;19;20011;-73
2024/04/09 04:21:17;;;;;;;13.80;4.03;;;;;;;16.95;100.00;99286.66;7381622;19;20018;-71
2024/04/09 04:23:44;;;;;;;20.67;5.05;;;;;;;16.72;100.00;99240.59;7374877;19;20010;-71
2024/04/09 04:26:13;;;;;;;22.10;4.82;;;;;;;17.30;100.00;99318.22;7379947;19;20573;-72
2024/04/09 04:28:39;;;;;;;21.77;5.03;;;;;;;17.23;99.30;99285.81;7383763;19;20337;-72
2024/04/09 04:31:09;;;;;;;20.95;5.28;;;;;;;17.45;97.54;99316.81;7382449;19;20021;-73
2024/04/09 04:33:35;;;;;;;23.53;5.53;;;;;;;17.43;96.37;99324.97;7379590;19;20006;-73
2024/04/09 04:36:01;;;;;;;25.35;4.85;;;;;;;17.49;93.83;99334.25;7380555;19;20299;-73
2024/04/09 04:38:27;;;;;;;19.60;4.80;;;;;;;17.62;92.74;99337.50;7361583;19;20774;-72
2024/04/09 04:40:54;;;;;;;21.42;4.47;;;;;;;17.60;91.84;99315.38;7382034;19;20379;-72
2024/04/09 04:43:20;;;;;;;19.60;5.15;;;;;;;17.67;92.27;99327.22;7377803;19;20034;-75
2024/04/09 04:45:48;;;;;;;18.27;4.82;;;;;;;17.53;92.02;99307.06;7382362;19;20018;-73
2024/04/09 04:48:14;;;;;;;15.38;4.82;;;;;;;17.68;91.31;99342.31;7381535;19;20018;-73
2024/04/09 04:50:41;;;;;;;19.15;4.63;;;;;;;17.41;92.25;99308.22;7382572;19;20392;-71
2024/04/09 04:53:06;;;;;;;24.58;4.72;;;;;;;17.68;92.18;99349.50;7377053;19;20657;-73
2024/04/09 04:55:32;;;;;;;26.27;5.32;;;;;;;17.52;92.10;99333.97;7383595;19;20336;-72
2024/04/09 04:58:01;;;;;;;15.68;4.30;;;;;;;17.56;91.86;99334.53;7344868;19;20104;-72
2024/04/09 05:00:28;;;;;;;16.55;4.38;;;;;;;17.48;92.48;99316.50;7383531;19;20744;-71
2024/04/09 05:02:54;;;;;;;15.75;4.40;;;;;;;17.65;92.27;99355.97;7383575;19;21098;-72
2024/04/09 05:05:20;;;;;;;19.70;4.50;;;;;;;17.58;90.97;99354.84;7389462;19;20034;-73
2024/04/09 05:07:45;;;;;;;15.15;4.43;;;;;;;17.51;91.20;99342.97;7387057;19;20018;-73
2024/04/09 05:10:14;;;;;;;20.52;4.80;;;;;;;17.68;91.20;99377.09;7388965;19;20394;-71
2024/04/09 05:12:42;;;;;;;16.75;4.38;;;;;;;17.47;90.65;99342.41;7382136;19;20018;-72
2024/04/09 05:15:09;;;;;;;21.33;5.10;;;;;;;17.62;89.95;99366.97;7387807;19;20029;-72
2024/04/09 05:17:36;;;;;;;22.25;4.50;;;;;;;17.79;88.87;99395.69;7383421;19;20017;-71
2024/04/09 05:20:10;;;;;;;16.17;4.10;;;;;;;17.77;88.48;99384.31;7352495;19;20026;-72
2024/04/09 05:22:40;;;;;;;20.52;4.97;;;;;;;17.76;87.40;99379.94;7377421;19;20003;-70
2024/04/09 05:25:06;;;;;;;22.95;4.80;;;;;;;17.80;85.57;99383.16;7383594;19;20021;-72
2024/04/09 05:27:33;;;;;;;18.88;4.15;;;;;;;17.85;84.50;99387.09;7382156;19;20010;-73
2024/04/09 05:29:59;;;;;;;22.67;5.03;;;;;;;17.98;84.75;99405.56;7383651;19;20010;-73
2024/04/09 05:32:28;;;;;;;19.00;3.70;;;;;;;18.02;79.93;99395.41;7380567;19;20046;-74
2024/04/09 05:34:56;;;;;;;23.40;4.25;;;;;;;17.81;79.76;99350.03;7380766;19;20490;-73
2024/04/09 05:37:22;;;;;;;21.70;3.70;;;;;;;18.01;80.16;99383.84;7386270;19;20010;-74
2024/04/09 05:39:48;;;;;;;20.95;3.53;;;;;;;18.07;79.96;99383.28;7384561;19;20510;-75
2024/04/09 05:42:14;;;;;;;20.17;3.38;;;;;;;18.27;79.31;99416.22;7350811;19;20014;-76
2024/04/09 05:44:51;;;;;;;13.82;3.10;;;;;;;18.24;76.99;99419.19;7347450;19;20192;-76
2024/04/09 05:47:18;;;;;;;68.53;10.15;;;;;;;18.22;76.49;99414.00;7399006;19;20017;-76
2024/04/09 05:49:44;;;;;;;40.45;7.75;;;;;;;18.38;75.50;99416.06;7398600;19;20122;-75
2024/04/09 05:52:12;;;;;;;18.13;3.30;;;;;;;18.61;74.49;99454.09;7390890;19;20015;-75
2024/04/09 05:54:41;;;;;;;16.05;3.22;;;;;;;18.37;73.90;99406.34;7365816;19;20651;-74
2024/04/09 05:57:06;;;;;;;19.17;2.95;;;;;;;18.48;73.27;99434.78;7319977;19;20007;-77
2024/04/09 05:59:33;;;;;;;9.57;2.60;;;;;;;18.13;73.02;99387.19;7386155;19;20022;-73
2024/04/09 06:01:58;;;;;;;8.60;2.58;;;;;;;18.41;73.97;99439.91;7387175;19;20034;-75
2024/04/09 06:04:24;;;;;;;10.55;2.70;;;;;;;18.23;74.65;99404.97;7379178;19;20015;-75
2024/04/09 06:06:51;;;;;;;9.77;2.45;;;;;;;18.51;74.98;99458.63;7367714;19;20385;-73
2024/04/09 06:09:16;;;;;;;14.95;3.33;;;;;;;18.41;75.55;99450.63;7388504;19;20010;-77
2024/04/09 06:11:42;;;;;;;10.77;2.38;;;;;;;17.48;75.62;99303.13;7350293;19;20035;-75
2024/04/09 06:14:07;;;;;;;11.30;2.50;;;;;;;18.23;75.87;99425.56;7385295;19;20190;-73
2024/04/09 06:16:35;;;;;;;9.65;2.80;;;;;;;18.26;76.24;99427.09;7387876;19;20015;-74
2024/04/09 06:19:01;;;;;;;19.25;2.28;;;;;;;18.40;76.05;99467.69;7388225;19;20011;-75
2024/04/09 06:21:27;;;;;;;13.43;3.03;;;;;;;18.48;76.11;99486.56;7383771;19;20034;-76
2024/04/09 06:23:53;;;;;;;15.90;3.17;;;;;;;18.31;76.69;99449.78;7390308;19;20007;-75
2024/04/09 06:26:20;;;;;;;16.48;2.78;;;;;;;18.30;77.38;99455.28;7395627;19;20019;-74
2024/04/09 06:28:46;;;;;;;13.75;2.80;;;;;;;18.46;78.11;99485.88;7394570;19;20385;-77
2024/04/09 06:31:12;;;;;;;12.75;2.58;;;;;;;18.36;78.84;99489.56;7389519;19;20019;-77
2024/04/09 06:33:38;;;;;;;11.63;2.25;;;;;;;17.99;79.14;99426.00;7385337;19;20043;-76
2024/04/09 06:36:04;;;;;;;15.57;3.00;;;;;;;18.18;80.15;99470.69;7388387;19;20017;-75
2024/04/09 06:38:31;;;;;;;10.05;2.33;;;;;;;18.07;81.86;99462.81;7329421;19;20012;-74
2024/04/09 06:40:58;;;;;;;13.40;3.20;;;;;;;18.19;83.37;99510.75;7388235;19;20018;-76
2024/04/09 06:43:24;;;;;;;12.23;2.40;;;;;;;17.74;84.20;99450.69;7388929;19;20013;-74
2024/04/09 06:45:50;;;;;;;9.32;2.03;;;;;;;17.82;85.38;99462.38;7389515;19;20006;-75
2024/04/09 06:48:16;;;;;;;13.40;2.30;;;;;;;17.96;86.46;99484.34;7388180;19;20336;-75
2024/04/09 06:50:42;;;;;;;7.13;2.00;;;;;;;17.83;87.72;99480.13;7337056;19;20342;-75
2024/04/09 06:53:09;;;;;;;8.75;1.85;;;;;;;17.86;88.93;99487.88;7387618;19;20023;-78
2024/04/09 06:55:35;;;;;;;10.75;1.65;;;;;;;17.80;89.31;99472.38;7353303;19;20014;-75
2024/04/09 06:58:00;;;;;;;6.95;1.50;;;;;;;18.05;90.29;99539.78;7396399;19;20010;-73
2024/04/09 07:00:26;;;;;;;6.32;1.60;;;;;;;17.77;91.85;99494.09;7386710;19;20026;-76
2024/04/09 07:02:54;;;;;;;6.88;1.52;;;;;;;18.12;93.11;99544.44;7389740;19;20114;-77
2024/04/09 07:05:20;;;;;;;10.48;1.70;;;;;;;17.68;95.46;99494.06;7402245;19;20009;-76
2024/04/09 07:07:45;;;;;;;13.73;2.10;;;;;;;17.75;96.82;99536.22;7379474;19;20007;-75
2024/04/09 07:10:13;;;;;;;5.15;1.23;;;;;;;18.13;99.25;99601.53;7390802;19;20023;-76
2024/04/09 07:12:41;;;;;;;6.85;1.30;;;;;;;18.02;100.00;99602.53;7397621;19;20007;-74
2024/04/09 07:15:07;;;;;;;8.73;1.52;;;;;;;17.58;100.00;99566.31;7360229;19;20042;-76
2024/04/09 07:17:32;;;;;;;6.28;1.52;;;;;;;17.88;100.00;99632.38;7388815;19;20150;-75
2024/04/09 07:20:01;;;;;;;8.32;2.05;;;;;;;17.78;100.00;99635.03;7320354;19;20503;-75
2024/04/09 07:22:27;;;;;;;5.18;1.25;;;;;;;17.59;100.00;99607.31;7394880;19;20011;-76
2024/04/09 07:24:53;;;;;;;7.00;1.60;;;;;;;17.60;100.00;99606.34;7371063;19;20006;-74
2024/04/09 07:27:18;;;;;;;3.20;1.27;;;;;;;17.17;100.00;99551.22;7395291;19;20017;-75
2024/04/09 07:29:44;;;;;;;10.98;1.48;;;;;;;17.90;100.00;99645.63;7391468;19;20017;-76
2024/04/09 07:32:12;;;;;;;4.55;1.33;;;;;;;18.03;100.00;99648.91;7393238;19;20011;-75
2024/04/09 07:34:38;;;;;;;5.65;1.48;;;;;;;17.84;100.00;99602.34;7391265;19;20034;-78
2024/04/09 07:37:04;;;;;;;4.72;1.08;;;;;;;18.26;100.00;99662.94;7396858;19;20018;-78
2024/04/09 07:39:29;;;;;;;2.90;1.10;;;;;;;17.99;100.00;99626.06;7395697;19;20025;-76
2024/04/09 07:41:56;;;;;;;5.40;1.25;;;;;;;17.35;100.00;99530.88;7393093;19;20018;-78
2024/04/09 07:44:23;;;;;;;3.78;1.02;;;;;;;17.47;100.00;99526.28;7391703;19;20022;-76
2024/04/09 07:46:49;;;;;;;3.63;1.00;;;;;;;18.19;100.00;99625.13;7395725;19;20002;-77
2024/04/09 07:49:17;;;;;;;3.30;1.15;;;;;;;18.22;100.00;99630.19;7395483;19;20006;-76
2024/04/09 07:51:43;;;;;;;6.18;1.00;;;;;;;17.76;100.00;99556.66;7391294;19;20015;-76
2024/04/09 07:54:10;;;;;;;3.63;0.70;;;;;;;18.55;99.12;99683.44;7398108;19;20014;-76
2024/04/09 07:56:38;;;;;;;2.40;0.70;;;;;;;18.14;95.07;99630.03;7401346;19;20014;-77
2024/04/09 07:59:06;;;;;;;2.95;0.70;;;;;;;18.45;92.48;99676.34;7396036;19;20440;-76
2024/04/09 08:01:33;;;;;;;2.40;0.45;;;;;;;17.92;90.44;99644.53;7394043;19;20021;-77
2024/04/09 08:03:59;;;;;;;2.40;0.40;;;;;;;17.60;88.66;99630.44;7392053;19;20014;-77
2024/04/09 08:06:27;;;;;;;6.80;0.60;;;;;;;17.44;90.51;99671.06;7395637;19;20015;-76
2024/04/09 08:08:55;;;;;;;4.90;0.55;;;;;;;17.34;92.80;99672.84;7397185;19;20014;-74
2024/04/09 08:11:20;;;;;;;3.13;0.45;;;;;;;17.19;92.17;99659.81;7404685;19;20389;-78
2024/04/09 08:13:46;;;;;;;5.00;0.43;;;;;;;17.50;92.59;99711.53;7396594;19;20031;-76
2024/04/09 08:16:12;;;;;;;2.15;0.50;;;;;;;16.95;92.09;99623.63;7398740;19;20006;-75
2024/04/09 08:18:37;;;;;;;3.15;0.40;;;;;;;17.62;93.22;99762.34;7398629;19;20014;-77
2024/04/09 08:21:03;;;;;;;4.57;0.65;;;;;;;16.94;95.38;99719.03;7395012;19;20062;-76
2024/04/09 08:23:30;;;;;;;1.25;0.20;;;;;;;16.73;99.54;99731.53;7391854;19;20011;-77
2024/04/09 08:25:58;;;;;;;3.28;0.60;;;;;;;16.57;100.00;99737.25;7376081;19;20025;-76
2024/04/09 08:28:23;;;;;;;3.50;0.65;;;;;;;16.46;100.00;99758.66;7382279;19;20014;-77
2024/04/09 08:30:50;;;;;;;4.15;0.60;;;;;;;16.35;100.00;99758.69;7399554;19;20006;-76
2024/04/09 08:33:17;;;;;;;5.10;0.47;;;;;;;15.78;98.85;99668.91;7396736;19;20013;-79
2024/04/09 08:35:51;;;;;;;7.50;0.60;;;;;;;16.41;95.42;99801.78;7395538;19;20026;-76
2024/04/09 08:38:17;;;;;;;6.45;1.00;;;;;;;15.91;90.10;99740.88;7399330;19;20014;-76
2024/04/09 08:40:43;;;;;;;4.43;0.30;;;;;;;16.03;87.05;99791.50;7401106;19;20544;-77
2024/04/09 08:43:09;;;;;;;11.32;0.50;;;;;;;15.98;83.94;99857.78;7401876;19;20036;-75
2024/04/09 08:45:37;;;;;;;4.43;0.50;;;;;;;15.59;85.59;99880.34;7396150;19;20443;-75
2024/04/09 08:48:05;;;;;;;8.48;0.35;;;;;;;15.04;86.04;99855.13;7399017;19;20019;-75
2024/04/09 08:50:32;;;;;;;5.70;1.15;;;;;;;14.77;88.78;99838.50;7401179;19;20492;-74
2024/04/09 08:53:07;;;;;;;5.53;0.40;;;;;;;14.96;88.46;99889.47;7401809;19;20506;-77
2024/04/09 08:55:35;;;;;;;4.07;0.38;;;;;;;14.39;89.59;99809.25;7401567;19;20016;-75
2024/04/09 08:58:01;;;;;;;1.55;0.30;;;;;;;14.61;89.19;99869.88;7402744;19;20483;-75
2024/04/09 09:00:28;;;;;;;2.50;0.32;;;;;;;14.60;87.10;99862.84;7401950;19;20019;-77
2024/04/09 09:02:53;;;;;;;2.55;0.40;;;;;;;14.49;86.89;99874.25;7400932;19;20664;-76
2024/04/09 09:05:22;;;;;;;4.85;0.40;;;;;;;14.47;86.07;99870.03;7394600;19;20014;-75
2024/04/09 09:07:58;;;;;;;7.80;0.57;;;;;;;14.40;86.53;99856.28;7401360;19;20020;-76
2024/04/09 09:10:23;;;;;;;3.10;0.60;;;;;;;14.31;83.70;99817.81;7404057;19;20018;-77
2024/04/09 09:13:02;;;;;;;1.95;0.50;;;;;;;14.89;79.69;99946.03;7399525;19;20063;-79
2024/04/09 09:15:28;;;;;;;1.73;0.22;;;;;;;13.97;77.78;99814.03;7396158;19;20034;-76
2024/04/09 09:17:55;;;;;;;1.35;0.30;;;;;;;13.67;79.68;99782.41;7396602;19;20033;-76
2024/04/09 09:20:22;;;;;;;4.30;0.80;;;;;;;14.24;78.30;99880.44;7396524;19;20007;-77
2024/04/09 09:22:47;;;;;;;2.90;0.50;;;;;;;14.39;77.78;99902.50;7359098;19;20014;-74
2024/04/09 09:25:18;;;;;;;2.95;0.70;;;;;;;14.34;77.52;99891.28;7387197;19;20014;-77
2024/04/09 09:27:44;;;;;;;;;;;;;;;14.87;77.12;99948.81;7394387;19;20046;-75
2024/04/09 09:30:14;;;;;;;5.00;0.57;;;;;;;14.08;73.69;99831.88;7389396;19;19911;-76
2024/04/09 09:32:44;;;;;;;3.10;0.35;;;;;;;14.62;72.21;99935.53;7394030;19;20024;-77
2024/04/09 09:35:12;;;;;;;;;;;;;;;14.94;72.71;100002.56;7389849;19;20039;-72
2024/04/09 09:37:38;;;;;;;1.00;0.40;;;;;;;14.60;74.33;99945.47;7388432;19;19919;-76
2024/04/09 09:40:07;;;;;;;3.92;0.63;;;;;;;14.70;74.06;99974.00;7376342;19;20046;-81
2024/04/09 09:42:36;;;;;;;4.38;0.52;;;;;;;14.28;75.80;99947.69;7389170;19;20007;-75
2024/04/09 09:45:06;;;;;;;0.82;0.40;;;;;;;14.62;77.79;100031.47;7388648;19;20013;-74
2024/04/09 09:47:35;;;;;;;2.28;0.80;;;;;;;14.48;78.44;100008.44;7391982;19;20018;-73
2024/04/09 09:50:02;;;;;;;3.53;0.50;;;;;;;14.76;76.57;100026.03;7365547;19;20029;-76
2024/04/09 09:52:28;;;;;;;3.85;0.70;;;;;;;14.76;69.94;100046.50;7380274;19;20063;-75
2024/04/09 09:54:53;;;;;;;4.22;0.50;;;;;;;14.53;70.53;100027.63;7383738;19;20015;-74
2024/04/09 09:57:23;;;;;;;4.13;0.55;;;;;;;14.50;68.45;100037.63;7384393;19;20023;-73
2024/04/09 09:59:57;;;;;;;1.70;0.50;;;;;;;14.33;68.91;100009.44;7384341;19;20478;-75
2024/04/09 10:02:27;;;;;;;4.07;0.68;;;;;;;14.72;66.35;100064.50;7384174;19;20441;-74
2024/04/09 10:04:56;;;;;;;2.38;0.57;;;;;;;14.81;65.20;100055.88;7378613;19;20483;-72
2024/04/09 10:07:22;;;;;;;3.40;0.50;;;;;;;14.66;62.77;100030.28;7384170;19;20526;-75
2024/04/09 10:09:52;;;;;;;4.07;0.95;;;;;;;14.79;61.15;100031.16;7384493;19;20010;-74
2024/04/09 10:12:22;;;;;;;;;;;;;;;14.82;59.09;100065.56;7383637;19;20018;-74
2024/04/09 10:15:05;;;;;;;2.47;0.50;;;;;;;14.33;62.04;100076.03;7379671;19;20020;-73
2024/04/09 10:17:50;;;;;;;2.50;0.60;;;;;;;14.46;66.82;100113.41;7385048;19;20063;-74
2024/04/09 10:20:21;;;;;;;2.45;0.70;;;;;;;13.88;71.72;100048.00;7381436;19;20014;-75
2024/04/09 10:22:48;;;;;;;3.13;0.60;;;;;;;14.09;72.47;100113.16;7379903;19;20011;-75
2024/04/09 10:25:21;;;;;;;3.75;0.73;;;;;;;14.02;69.82;100131.34;7380269;19;20252;-73
2024/04/09 10:27:58;;;;;;;2.55;0.60;;;;;;;13.54;70.16;100060.00;7379068;19;20041;-74
2024/04/09 10:30:27;;;;;;;4.53;0.55;;;;;;;13.94;69.33;100117.69;7381311;19;20010;-73
2024/04/09 10:32:57;;;;;;;3.17;0.65;;;;;;;13.78;68.75;100087.69;7382139;19;20034;-75
2024/04/09 10:35:25;;;;;;;1.23;0.55;;;;;;;13.51;67.74;100050.44;7379614;19;20014;-75
2024/04/09 10:37:52;;;;;;;2.80;0.52;;;;;;;13.76;68.31;100124.19;7383281;19;20011;-74
2024/04/09 10:40:18;;;;;;;5.32;0.60;;;;;;;13.70;71.32;100130.75;7381126;19;20010;-75
2024/04/09 10:42:45;;;;;;;2.40;0.65;;;;;;;13.81;68.91;100132.75;7381748;19;20007;-75
2024/04/09 10:45:12;;;;;;;3.13;0.60;;;;;;;13.62;68.99;100134.88;7380670;19;20011;-74
2024/04/09 10:47:40;;;;;;;2.85;0.57;;;;;;;13.41;70.36;100123.78;7382999;19;20738;-74
2024/04/09 10:50:06;;;;;;;2.03;0.68;;;;;;;13.20;71.81;100122.47;7384241;19;20328;-73
2024/04/09 10:52:33;;;;;;;3.03;0.50;;;;;;;13.39;70.24;100148.75;7381618;19;20025;-74
2024/04/09 10:55:13;;;;;;;4.90;0.80;;;;;;;13.18;67.91;100125.22;7357220;19;20071;-75
2024/04/09 10:57:39;;;;;;;6.28;0.60;;;;;;;12.79;67.09;100091.25;7383177;19;20007;-75
2024/04/09 11:00:10;;;;;;;2.65;0.68;;;;;;;12.91;67.23;100119.75;7382980;19;20006;-75
2024/04/09 11:02:37;;;;;;;3.88;0.70;;;;;;;13.41;67.78;100182.28;7381449;19;20010;-74
2024/04/09 11:05:05;;;;;;;3.85;0.60;;;;;;;13.48;66.17;100180.97;7379524;19;20014;-75
2024/04/09 11:07:38;;;;;;;1.90;0.47;;;;;;;13.36;66.16;100162.25;7382480;19;20044;-73
2024/04/09 11:10:10;;;;;;;3.53;0.85;;;;;;;13.36;68.02;100175.56;7382237;19;20022;-73
2024/04/09 11:12:40;;;;;;;2.80;0.82;;;;;;;13.38;66.93;100178.97;7377785;19;20011;-74
2024/04/09 11:15:10;;;;;;;4.22;0.80;;;;;;;13.28;68.50;100176.00;7378085;19;20035;-73
2024/04/09 11:17:39;;;;;;;2.78;0.40;;;;;;;13.22;69.91;100181.72;7381252;19;20007;-75
2024/04/09 11:20:10;;;;;;;4.93;0.73;;;;;;;13.00;71.13;100163.53;7383084;19;20036;-73
2024/04/09 11:22:41;;;;;;;;;;;;;;;13.12;72.72;100200.00;7383517;19;20463;-75
2024/04/09 11:25:19;;;;;;;2.08;0.60;;;;;;;13.04;74.13;100193.44;7380022;19;19945;-73
2024/04/09 11:27:49;;;;;;;5.43;0.90;;;;;;;12.99;75.26;100160.00;7378823;19;20035;-76